Terminal Aerodrome Forecast
Issued by NWS Pocatello, ID

Home | Current Version | Previous Version | Text Only | Print | Product List | Glossary On
Versions: 1 2 3 4 5 6 7 8 9 10 11 12
000
FTUS45 KPIH 292322
TAFPIH
TAF
KPIH 292322Z 3000/3024 30008KT P6SM VCTS FEW110CB BKN150
      TEMPO 3000/3002 VRB15G25KT
     FM300200 21007KT P6SM VCTS SCT110 BKN150CB
     FM300700 22009KT P6SM SCT200=

USA.gov is the U.S. government's official web portal to all federal, state and local government web resources and services.